sensor_id;sensor_type;location;lat;lon;timestamp;temperature;humidity
8914;DHT22;4492;48.736;9.092;2022-09-09T00:04:37;13.60;99.90
8914;DHT22;4492;48.736;9.092;2022-09-09T00:07:18;13.50;99.90
8914;DHT22;4492;48.736;9.092;2022-09-09T00:12:49;13.50;99.90
8914;DHT22;4492;48.736;9.092;2022-09-09T00:15:25;13.50;99.90
8914;DHT22;4492;48.736;9.092;2022-09-09T00:20:42;13.50;99.90
8914;DHT22;4492;48.736;9.092;2022-09-09T00:23:19;13.60;99.90
8914;DHT22;4492;48.736;9.092;2022-09-09T00:28:25;13.60;99.90
8914;DHT22;4492;48.736;9.092;2022-09-09T00:30:52;13.70;99.90
8914;DHT22;4492;48.736;9.092;2022-09-09T00:33:20;13.70;99.90
8914;DHT22;4492;48.736;9.092;2022-09-09T00:35:59;13.80;99.90
8914;DHT22;4492;48.736;9.092;2022-09-09T00:38:34;13.90;99.90
8914;DHT22;4492;48.736;9.092;2022-09-09T00:43:35;14.00;99.90
8914;DHT22;4492;48.736;9.092;2022-09-09T00:49:04;14.10;99.90
8914;DHT22;4492;48.736;9.092;2022-09-09T00:51:59;14.10;99.90
8914;DHT22;4492;48.736;9.092;2022-09-09T00:54:53;14.10;99.90
8914;DHT22;4492;48.736;9.092;2022-09-09T01:00:29;14.10;99.90
8914;DHT22;4492;48.736;9.092;2022-09-09T01:11:22;14.10;99.90
8914;DHT22;4492;48.736;9.092;2022-09-09T01:13:55;14.20;99.90
8914;DHT22;4492;48.736;9.092;2022-09-09T01:16:25;14.20;99.90
8914;DHT22;4492;48.736;9.092;2022-09-09T01:18:53;14.20;99.90
8914;DHT22;4492;48.736;9.092;2022-09-09T01:21:41;14.10;99.90
8914;DHT22;4492;48.736;9.092;2022-09-09T01:24:44;14.10;99.90
8914;DHT22;4492;48.736;9.092;2022-09-09T01:27:15;14.10;99.90
8914;DHT22;4492;48.736;9.092;2022-09-09T01:29:42;14.10;99.90
8914;DHT22;4492;48.736;9.092;2022-09-09T01:32:43;14.20;99.90
8914;DHT22;4492;48.736;9.092;2022-09-09T01:36:02;14.10;99.90
8914;DHT22;4492;48.736;9.092;2022-09-09T01:38:01;14.20;99.90
8914;DHT22;4492;48.736;9.092;2022-09-09T01:40:26;14.10;99.90
8914;DHT22;4492;48.736;9.092;2022-09-09T01:42:55;14.10;99.90
8914;DHT22;4492;48.736;9.092;2022-09-09T01:45:22;14.10;99.90
8914;DHT22;4492;48.736;9.092;2022-09-09T01:47:48;14.00;99.90
8914;DHT22;4492;48.736;9.092;2022-09-09T01:50:16;13.90;99.90
8914;DHT22;4492;48.736;9.092;2022-09-09T01:52:43;13.90;99.90
8914;DHT22;4492;48.736;9.092;2022-09-09T01:55:10;13.90;99.90
8914;DHT22;4492;48.736;9.092;2022-09-09T01:57:45;13.90;99.90
8914;DHT22;4492;48.736;9.092;2022-09-09T02:00:15;13.90;99.90
8914;DHT22;4492;48.736;9.092;2022-09-09T02:08:17;14.10;99.90
8914;DHT22;4492;48.736;9.092;2022-09-09T02:13:21;14.10;99.90
8914;DHT22;4492;48.736;9.092;2022-09-09T02:15:52;14.10;99.90
8914;DHT22;4492;48.736;9.092;2022-09-09T02:21:03;14.00;99.90
8914;DHT22;4492;48.736;9.092;2022-09-09T02:23:29;13.90;99.90
8914;DHT22;4492;48.736;9.092;2022-09-09T02:25:57;13.80;99.90
8914;DHT22;4492;48.736;9.092;2022-09-09T02:28:26;13.80;99.90
8914;DHT22;4492;48.736;9.092;2022-09-09T02:30:54;13.70;99.90
8914;DHT22;4492;48.736;9.092;2022-09-09T02:33:23;13.60;99.90
8914;DHT22;4492;48.736;9.092;2022-09-09T02:35:51;13.60;99.90
8914;DHT22;4492;48.736;9.092;2022-09-09T02:38:17;13.50;99.90
8914;DHT22;4492;48.736;9.092;2022-09-09T02:40:44;13.40;99.90
8914;DHT22;4492;48.736;9.092;2022-09-09T02:43:10;13.40;99.90
8914;DHT22;4492;48.736;9.092;2022-09-09T02:45:45;13.30;99.90
8914;DHT22;4492;48.736;9.092;2022-09-09T02:48:46;13.20;99.90
8914;DHT22;4492;48.736;9.092;2022-09-09T02:51:18;13.20;99.90
8914;DHT22;4492;48.736;9.092;2022-09-09T02:53:54;13.20;99.90
8914;DHT22;4492;48.736;9.092;2022-09-09T02:56:25;13.20;99.90
8914;DHT22;4492;48.736;9.092;2022-09-09T02:58:54;13.30;99.90
8914;DHT22;4492;48.736;9.092;2022-09-09T03:01:20;13.30;99.90
8914;DHT22;4492;48.736;9.092;2022-09-09T03:03:46;13.30;99.90
8914;DHT22;4492;48.736;9.092;2022-09-09T03:06:11;13.30;99.90
8914;DHT22;4492;48.736;9.092;2022-09-09T03:08:37;13.30;99.90
8914;DHT22;4492;48.736;9.092;2022-09-09T03:11:03;13.20;99.90
8914;DHT22;4492;48.736;9.092;2022-09-09T03:13:29;13.20;99.90
8914;DHT22;4492;48.736;9.092;2022-09-09T03:15:55;13.20;99.90
8914;DHT22;4492;48.736;9.092;2022-09-09T03:18:20;13.20;99.90
8914;DHT22;4492;48.736;9.092;2022-09-09T03:20:46;13.10;99.90
8914;DHT22;4492;48.736;9.092;2022-09-09T03:23:14;13.10;99.90
8914;DHT22;4492;48.736;9.092;2022-09-09T03:25:46;13.10;99.90
8914;DHT22;4492;48.736;9.092;2022-09-09T03:28:12;13.10;99.90
8914;DHT22;4492;48.736;9.092;2022-09-09T03:30:38;13.10;99.90
8914;DHT22;4492;48.736;9.092;2022-09-09T03:33:03;13.00;99.90
8914;DHT22;4492;48.736;9.092;2022-09-09T03:35:29;13.10;99.90
8914;DHT22;4492;48.736;9.092;2022-09-09T03:37:55;13.10;99.90
8914;DHT22;4492;48.736;9.092;2022-09-09T03:40:21;13.10;99.90
8914;DHT22;4492;48.736;9.092;2022-09-09T03:42:47;13.10;99.90
8914;DHT22;4492;48.736;9.092;2022-09-09T03:45:13;13.10;99.90
8914;DHT22;4492;48.736;9.092;2022-09-09T03:47:39;13.10;99.90
8914;DHT22;4492;48.736;9.092;2022-09-09T03:50:06;13.20;99.90
8914;DHT22;4492;48.736;9.092;2022-09-09T03:52:36;13.20;99.90
8914;DHT22;4492;48.736;9.092;2022-09-09T03:55:01;13.20;99.90
8914;DHT22;4492;48.736;9.092;2022-09-09T03:57:27;13.20;99.90
8914;DHT22;4492;48.736;9.092;2022-09-09T03:59:53;13.20;99.90
8914;DHT22;4492;48.736;9.092;2022-09-09T04:02:18;13.20;99.90
8914;DHT22;4492;48.736;9.092;2022-09-09T04:04:44;13.20;99.90
8914;DHT22;4492;48.736;9.092;2022-09-09T04:07:09;13.20;99.90
8914;DHT22;4492;48.736;9.092;2022-09-09T04:09:35;13.20;99.90
8914;DHT22;4492;48.736;9.092;2022-09-09T04:12:00;13.20;99.90
8914;DHT22;4492;48.736;9.092;2022-09-09T04:14:26;13.20;99.90
8914;DHT22;4492;48.736;9.092;2022-09-09T04:16:54;13.20;99.90
8914;DHT22;4492;48.736;9.092;2022-09-09T04:19:20;13.20;99.90
8914;DHT22;4492;48.736;9.092;2022-09-09T04:21:46;13.20;99.90
8914;DHT22;4492;48.736;9.092;2022-09-09T04:24:15;13.20;99.90
8914;DHT22;4492;48.736;9.092;2022-09-09T04:26:42;13.20;99.90
8914;DHT22;4492;48.736;9.092;2022-09-09T04:29:07;13.20;99.90
8914;DHT22;4492;48.736;9.092;2022-09-09T04:31:33;13.30;99.90
8914;DHT22;4492;48.736;9.092;2022-09-09T04:33:59;13.30;99.90
8914;DHT22;4492;48.736;9.092;2022-09-09T04:36:30;13.30;99.90
8914;DHT22;4492;48.736;9.092;2022-09-09T04:38:57;13.40;99.90
8914;DHT22;4492;48.736;9.092;2022-09-09T04:41:22;13.40;99.90
8914;DHT22;4492;48.736;9.092;2022-09-09T04:43:49;13.40;99.90
8914;DHT22;4492;48.736;9.092;2022-09-09T04:46:15;13.30;99.90
8914;DHT22;4492;48.736;9.092;2022-09-09T04:48:43;13.30;99.90
8914;DHT22;4492;48.736;9.092;2022-09-09T04:51:12;13.20;99.90
8914;DHT22;4492;48.736;9.092;2022-09-09T04:53:38;13.20;99.90
8914;DHT22;4492;48.736;9.092;2022-09-09T04:56:16;13.20;99.90
8914;DHT22;4492;48.736;9.092;2022-09-09T04:58:42;13.20;99.90
8914;DHT22;4492;48.736;9.092;2022-09-09T05:01:11;13.10;99.90
8914;DHT22;4492;48.736;9.092;2022-09-09T05:03:37;13.10;99.90
8914;DHT22;4492;48.736;9.092;2022-09-09T05:06:11;13.10;99.90
8914;DHT22;4492;48.736;9.092;2022-09-09T05:08:38;13.10;99.90
8914;DHT22;4492;48.736;9.092;2022-09-09T05:11:25;13.20;99.90
8914;DHT22;4492;48.736;9.092;2022-09-09T05:13:52;13.30;99.90
8914;DHT22;4492;48.736;9.092;2022-09-09T05:16:19;13.30;99.90
8914;DHT22;4492;48.736;9.092;2022-09-09T05:18:45;13.40;99.90
8914;DHT22;4492;48.736;9.092;2022-09-09T05:21:12;13.40;99.90
8914;DHT22;4492;48.736;9.092;2022-09-09T05:23:38;13.50;99.90
8914;DHT22;4492;48.736;9.092;2022-09-09T05:26:04;13.50;99.90
8914;DHT22;4492;48.736;9.092;2022-09-09T05:28:30;13.60;99.90
8914;DHT22;4492;48.736;9.092;2022-09-09T05:31:06;13.70;99.90
8914;DHT22;4492;48.736;9.092;2022-09-09T05:33:37;13.70;99.90
8914;DHT22;4492;48.736;9.092;2022-09-09T05:36:14;13.80;99.90
8914;DHT22;4492;48.736;9.092;2022-09-09T05:38:41;13.90;99.90
8914;DHT22;4492;48.736;9.092;2022-09-09T05:41:07;13.90;99.90
8914;DHT22;4492;48.736;9.092;2022-09-09T05:43:33;14.00;99.90
8914;DHT22;4492;48.736;9.092;2022-09-09T05:46:16;14.10;99.90
8914;DHT22;4492;48.736;9.092;2022-09-09T05:48:43;14.10;99.90
8914;DHT22;4492;48.736;9.092;2022-09-09T05:51:13;14.20;99.90
8914;DHT22;4492;48.736;9.092;2022-09-09T05:53:41;14.20;99.90
8914;DHT22;4492;48.736;9.092;2022-09-09T05:56:18;14.30;99.90
8914;DHT22;4492;48.736;9.092;2022-09-09T05:58:45;14.30;99.90
8914;DHT22;4492;48.736;9.092;2022-09-09T06:01:30;14.30;99.90
8914;DHT22;4492;48.736;9.092;2022-09-09T06:03:56;14.40;99.90
8914;DHT22;4492;48.736;9.092;2022-09-09T06:06:23;14.40;99.90
8914;DHT22;4492;48.736;9.092;2022-09-09T06:08:52;14.50;99.90
8914;DHT22;4492;48.736;9.092;2022-09-09T06:11:23;14.50;99.90
8914;DHT22;4492;48.736;9.092;2022-09-09T06:13:49;14.60;99.90
8914;DHT22;4492;48.736;9.092;2022-09-09T06:16:19;14.60;99.90
8914;DHT22;4492;48.736;9.092;2022-09-09T06:18:45;14.60;99.90
8914;DHT22;4492;48.736;9.092;2022-09-09T06:21:19;14.70;99.90
8914;DHT22;4492;48.736;9.092;2022-09-09T06:23:45;14.80;99.90
8914;DHT22;4492;48.736;9.092;2022-09-09T06:26:23;14.80;99.90
8914;DHT22;4492;48.736;9.092;2022-09-09T06:28:50;14.90;99.90
8914;DHT22;4492;48.736;9.092;2022-09-09T06:31:20;14.90;99.90
8914;DHT22;4492;48.736;9.092;2022-09-09T06:33:50;14.90;99.90
8914;DHT22;4492;48.736;9.092;2022-09-09T06:36:19;15.10;99.90
8914;DHT22;4492;48.736;9.092;2022-09-09T06:38:45;15.10;99.90
8914;DHT22;4492;48.736;9.092;2022-09-09T06:41:13;15.20;99.90
8914;DHT22;4492;48.736;9.092;2022-09-09T06:43:39;15.20;99.90
8914;DHT22;4492;48.736;9.092;2022-09-09T06:46:08;15.20;99.90
8914;DHT22;4492;48.736;9.092;2022-09-09T06:48:35;15.40;99.90
8914;DHT22;4492;48.736;9.092;2022-09-09T06:51:03;15.50;99.90
8914;DHT22;4492;48.736;9.092;2022-09-09T06:53:30;15.50;99.90
8914;DHT22;4492;48.736;9.092;2022-09-09T06:56:13;15.60;99.90
8914;DHT22;4492;48.736;9.092;2022-09-09T06:58:42;15.70;99.90
8914;DHT22;4492;48.736;9.092;2022-09-09T07:01:16;15.80;99.90
8914;DHT22;4492;48.736;9.092;2022-09-09T07:03:44;15.90;99.90
8914;DHT22;4492;48.736;9.092;2022-09-09T07:06:16;15.90;99.90
8914;DHT22;4492;48.736;9.092;2022-09-09T07:08:53;15.90;99.90
8914;DHT22;4492;48.736;9.092;2022-09-09T07:11:20;16.00;99.90
8914;DHT22;4492;48.736;9.092;2022-09-09T07:13:46;16.00;99.90
8914;DHT22;4492;48.736;9.092;2022-09-09T07:16:17;15.90;99.90
8914;DHT22;4492;48.736;9.092;2022-09-09T07:18:44;16.00;99.90
8914;DHT22;4492;48.736;9.092;2022-09-09T07:21:14;16.10;99.90
8914;DHT22;4492;48.736;9.092;2022-09-09T07:23:41;16.20;99.90
8914;DHT22;4492;48.736;9.092;2022-09-09T07:26:12;16.40;99.90
8914;DHT22;4492;48.736;9.092;2022-09-09T07:28:39;16.50;99.90
8914;DHT22;4492;48.736;9.092;2022-09-09T07:31:06;16.60;99.90
8914;DHT22;4492;48.736;9.092;2022-09-09T07:33:33;16.70;99.90
8914;DHT22;4492;48.736;9.092;2022-09-09T07:36:06;16.80;99.90
8914;DHT22;4492;48.736;9.092;2022-09-09T07:38:42;17.10;99.90
8914;DHT22;4492;48.736;9.092;2022-09-09T07:41:10;17.40;99.90
8914;DHT22;4492;48.736;9.092;2022-09-09T07:43:42;17.60;99.90
8914;DHT22;4492;48.736;9.092;2022-09-09T07:46:10;17.40;99.90
8914;DHT22;4492;48.736;9.092;2022-09-09T07:48:37;17.40;99.90
8914;DHT22;4492;48.736;9.092;2022-09-09T07:51:09;17.20;99.90
8914;DHT22;4492;48.736;9.092;2022-09-09T07:53:36;17.30;99.90
8914;DHT22;4492;48.736;9.092;2022-09-09T07:56:05;17.40;99.90
8914;DHT22;4492;48.736;9.092;2022-09-09T07:58:30;17.60;99.90
8914;DHT22;4492;48.736;9.092;2022-09-09T08:00:56;17.80;99.90
8914;DHT22;4492;48.736;9.092;2022-09-09T08:03:22;17.90;99.90
8914;DHT22;4492;48.736;9.092;2022-09-09T08:05:49;18.00;99.90
8914;DHT22;4492;48.736;9.092;2022-09-09T08:08:14;18.10;99.90
8914;DHT22;4492;48.736;9.092;2022-09-09T08:10:41;18.10;99.90
8914;DHT22;4492;48.736;9.092;2022-09-09T08:13:08;18.20;99.90
8914;DHT22;4492;48.736;9.092;2022-09-09T08:15:34;18.30;99.90
8914;DHT22;4492;48.736;9.092;2022-09-09T08:17:59;18.40;99.90
8914;DHT22;4492;48.736;9.092;2022-09-09T08:20:25;18.50;99.90
8914;DHT22;4492;48.736;9.092;2022-09-09T08:22:50;18.60;99.90
8914;DHT22;4492;48.736;9.092;2022-09-09T08:25:16;18.70;99.90
8914;DHT22;4492;48.736;9.092;2022-09-09T08:27:41;18.80;99.90
8914;DHT22;4492;48.736;9.092;2022-09-09T08:30:07;18.80;99.90
8914;DHT22;4492;48.736;9.092;2022-09-09T08:32:33;18.90;99.90
8914;DHT22;4492;48.736;9.092;2022-09-09T08:35:00;19.00;99.90
8914;DHT22;4492;48.736;9.092;2022-09-09T08:37:26;19.00;99.90
8914;DHT22;4492;48.736;9.092;2022-09-09T08:39:51;19.10;99.90
8914;DHT22;4492;48.736;9.092;2022-09-09T08:42:35;19.10;99.90
8914;DHT22;4492;48.736;9.092;2022-09-09T08:48:00;19.00;99.90
8914;DHT22;4492;48.736;9.092;2022-09-09T08:50:37;19.10;99.90
8914;DHT22;4492;48.736;9.092;2022-09-09T08:55:50;19.40;98.80
8914;DHT22;4492;48.736;9.092;2022-09-09T08:58:23;19.50;98.60
8914;DHT22;4492;48.736;9.092;2022-09-09T09:03:56;19.90;96.90
8914;DHT22;4492;48.736;9.092;2022-09-09T09:11:48;19.60;97.30
8914;DHT22;4492;48.736;9.092;2022-09-09T09:14:21;19.40;99.10
8914;DHT22;4492;48.736;9.092;2022-09-09T09:17:00;19.00;99.90
8914;DHT22;4492;48.736;9.092;2022-09-09T09:19:28;18.60;99.90
8914;DHT22;4492;48.736;9.092;2022-09-09T09:22:14;18.20;99.90
8914;DHT22;4492;48.736;9.092;2022-09-09T09:30:22;17.20;99.90
8914;DHT22;4492;48.736;9.092;2022-09-09T09:35:45;17.00;99.90
8914;DHT22;4492;48.736;9.092;2022-09-09T09:38:30;17.20;99.90
8914;DHT22;4492;48.736;9.092;2022-09-09T09:40:58;17.40;99.90
8914;DHT22;4492;48.736;9.092;2022-09-09T09:43:28;17.60;99.90
8914;DHT22;4492;48.736;9.092;2022-09-09T09:45:55;17.80;99.90
8914;DHT22;4492;48.736;9.092;2022-09-09T09:48:23;18.00;99.90
8914;DHT22;4492;48.736;9.092;2022-09-09T09:53:24;18.20;99.90
8914;DHT22;4492;48.736;9.092;2022-09-09T09:56:01;18.30;99.90
8914;DHT22;4492;48.736;9.092;2022-09-09T09:58:31;18.60;99.90
8914;DHT22;4492;48.736;9.092;2022-09-09T10:01:00;18.70;99.90
8914;DHT22;4492;48.736;9.092;2022-09-09T10:03:31;18.90;99.90
8914;DHT22;4492;48.736;9.092;2022-09-09T10:05:57;19.20;99.90
8914;DHT22;4492;48.736;9.092;2022-09-09T10:08:27;19.20;99.90
8914;DHT22;4492;48.736;9.092;2022-09-09T10:10:58;19.40;99.90
8914;DHT22;4492;48.736;9.092;2022-09-09T10:19:04;19.80;99.90
8914;DHT22;4492;48.736;9.092;2022-09-09T10:27:15;20.10;99.10
8914;DHT22;4492;48.736;9.092;2022-09-09T10:35:29;20.20;98.10
8914;DHT22;4492;48.736;9.092;2022-09-09T10:38:19;20.30;98.10
8914;DHT22;4492;48.736;9.092;2022-09-09T10:46:30;20.30;97.70
8914;DHT22;4492;48.736;9.092;2022-09-09T10:54:54;21.00;96.90
8914;DHT22;4492;48.736;9.092;2022-09-09T10:59:51;21.60;94.80
8914;DHT22;4492;48.736;9.092;2022-09-09T11:02:29;21.60;94.50
8914;DHT22;4492;48.736;9.092;2022-09-09T11:05:05;21.70;93.90
8914;DHT22;4492;48.736;9.092;2022-09-09T11:07:50;21.90;92.30
8914;DHT22;4492;48.736;9.092;2022-09-09T11:10:32;21.80;92.70
8914;DHT22;4492;48.736;9.092;2022-09-09T11:13:03;21.70;92.60
8914;DHT22;4492;48.736;9.092;2022-09-09T11:15:43;21.70;91.80
8914;DHT22;4492;48.736;9.092;2022-09-09T11:18:18;21.50;90.10
8914;DHT22;4492;48.736;9.092;2022-09-09T11:20:45;21.10;90.70
8914;DHT22;4492;48.736;9.092;2022-09-09T11:23:54;20.90;90.70
8914;DHT22;4492;48.736;9.092;2022-09-09T11:26:18;20.60;90.60
8914;DHT22;4492;48.736;9.092;2022-09-09T11:44:37;19.50;93.30
8914;DHT22;4492;48.736;9.092;2022-09-09T11:47:03;19.40;93.30
8914;DHT22;4492;48.736;9.092;2022-09-09T11:49:41;19.50;93.20
8914;DHT22;4492;48.736;9.092;2022-09-09T11:52:37;19.50;93.10
8914;DHT22;4492;48.736;9.092;2022-09-09T11:55:27;19.30;93.70
8914;DHT22;4492;48.736;9.092;2022-09-09T11:58:16;19.40;93.30
8914;DHT22;4492;48.736;9.092;2022-09-09T12:00:43;19.50;93.50
8914;DHT22;4492;48.736;9.092;2022-09-09T12:03:35;19.60;94.00
8914;DHT22;4492;48.736;9.092;2022-09-09T12:06:31;19.60;94.10
8914;DHT22;4492;48.736;9.092;2022-09-09T12:09:12;19.90;93.60
8914;DHT22;4492;48.736;9.092;2022-09-09T12:11:38;19.90;93.30
8914;DHT22;4492;48.736;9.092;2022-09-09T12:14:04;19.90;93.40
8914;DHT22;4492;48.736;9.092;2022-09-09T12:16:35;19.70;93.10
8914;DHT22;4492;48.736;9.092;2022-09-09T12:19:15;19.60;93.40
8914;DHT22;4492;48.736;9.092;2022-09-09T12:21:49;19.60;93.80
8914;DHT22;4492;48.736;9.092;2022-09-09T12:24:30;19.90;93.60
8914;DHT22;4492;48.736;9.092;2022-09-09T12:27:18;20.10;91.70
8914;DHT22;4492;48.736;9.092;2022-09-09T12:32:23;19.90;91.10
8914;DHT22;4492;48.736;9.092;2022-09-09T12:35:03;19.90;91.50
8914;DHT22;4492;48.736;9.092;2022-09-09T12:37:41;19.80;91.00
8914;DHT22;4492;48.736;9.092;2022-09-09T12:40:29;19.70;91.60
8914;DHT22;4492;48.736;9.092;2022-09-09T12:42:55;19.70;91.60
8914;DHT22;4492;48.736;9.092;2022-09-09T12:45:23;19.70;91.80
8914;DHT22;4492;48.736;9.092;2022-09-09T12:50:23;19.50;92.60
8914;DHT22;4492;48.736;9.092;2022-09-09T12:52:56;19.40;93.40
8914;DHT22;4492;48.736;9.092;2022-09-09T12:55:32;19.40;93.30
8914;DHT22;4492;48.736;9.092;2022-09-09T12:58:00;19.40;93.50
8914;DHT22;4492;48.736;9.092;2022-09-09T13:00:29;19.30;93.00
8914;DHT22;4492;48.736;9.092;2022-09-09T13:02:58;19.30;93.20
8914;DHT22;4492;48.736;9.092;2022-09-09T13:05:38;19.20;93.00
8914;DHT22;4492;48.736;9.092;2022-09-09T13:08:09;19.40;93.10
8914;DHT22;4492;48.736;9.092;2022-09-09T13:10:46;19.50;93.00
8914;DHT22;4492;48.736;9.092;2022-09-09T13:13:17;19.60;92.90
8914;DHT22;4492;48.736;9.092;2022-09-09T13:15:54;19.80;92.40
8914;DHT22;4492;48.736;9.092;2022-09-09T13:18:27;20.10;91.80
8914;DHT22;4492;48.736;9.092;2022-09-09T13:20:54;20.40;91.60
8914;DHT22;4492;48.736;9.092;2022-09-09T13:23:21;20.70;89.60
8914;DHT22;4492;48.736;9.092;2022-09-09T13:25:59;20.90;90.30
8914;DHT22;4492;48.736;9.092;2022-09-09T13:28:27;21.00;89.40
8914;DHT22;4492;48.736;9.092;2022-09-09T13:31:20;21.00;86.70
8914;DHT22;4492;48.736;9.092;2022-09-09T13:33:45;21.00;87.60
8914;DHT22;4492;48.736;9.092;2022-09-09T13:36:12;21.00;87.60
8914;DHT22;4492;48.736;9.092;2022-09-09T13:38:55;21.10;86.60
8914;DHT22;4492;48.736;9.092;2022-09-09T13:41:23;21.00;87.30
8914;DHT22;4492;48.736;9.092;2022-09-09T13:43:49;20.90;87.30
8914;DHT22;4492;48.736;9.092;2022-09-09T13:46:40;21.00;86.70
8914;DHT22;4492;48.736;9.092;2022-09-09T13:51:47;21.20;87.50
8914;DHT22;4492;48.736;9.092;2022-09-09T13:54:15;21.50;84.70
8914;DHT22;4492;48.736;9.092;2022-09-09T13:56:42;21.70;84.20
8914;DHT22;4492;48.736;9.092;2022-09-09T13:59:12;21.80;83.80
8914;DHT22;4492;48.736;9.092;2022-09-09T14:01:39;22.00;83.30
8914;DHT22;4492;48.736;9.092;2022-09-09T14:04:05;22.00;82.40
8914;DHT22;4492;48.736;9.092;2022-09-09T14:06:34;21.90;83.60
8914;DHT22;4492;48.736;9.092;2022-09-09T14:09:02;21.70;82.20
8914;DHT22;4492;48.736;9.092;2022-09-09T14:11:28;21.60;81.60
8914;DHT22;4492;48.736;9.092;2022-09-09T14:13:53;21.50;83.00
8914;DHT22;4492;48.736;9.092;2022-09-09T14:16:19;21.30;83.50
8914;DHT22;4492;48.736;9.092;2022-09-09T14:18:47;21.40;83.80
8914;DHT22;4492;48.736;9.092;2022-09-09T14:21:12;21.30;82.60
8914;DHT22;4492;48.736;9.092;2022-09-09T14:23:38;21.10;82.10
8914;DHT22;4492;48.736;9.092;2022-09-09T14:26:05;21.00;82.20
8914;DHT22;4492;48.736;9.092;2022-09-09T14:28:31;21.00;82.10
8914;DHT22;4492;48.736;9.092;2022-09-09T14:31:00;21.10;81.50
8914;DHT22;4492;48.736;9.092;2022-09-09T14:33:26;21.20;80.70
8914;DHT22;4492;48.736;9.092;2022-09-09T14:36:02;21.10;80.90
8914;DHT22;4492;48.736;9.092;2022-09-09T14:38:33;21.00;81.20
8914;DHT22;4492;48.736;9.092;2022-09-09T14:41:00;21.20;81.90
8914;DHT22;4492;48.736;9.092;2022-09-09T14:43:28;21.50;79.90
8914;DHT22;4492;48.736;9.092;2022-09-09T14:45:55;21.60;77.20
8914;DHT22;4492;48.736;9.092;2022-09-09T14:48:21;21.50;77.70
8914;DHT22;4492;48.736;9.092;2022-09-09T14:50:47;21.50;78.60
8914;DHT22;4492;48.736;9.092;2022-09-09T14:53:12;21.50;78.90
8914;DHT22;4492;48.736;9.092;2022-09-09T14:55:38;21.40;78.80
8914;DHT22;4492;48.736;9.092;2022-09-09T14:58:04;21.40;78.80
8914;DHT22;4492;48.736;9.092;2022-09-09T15:00:31;21.40;77.90
8914;DHT22;4492;48.736;9.092;2022-09-09T15:02:57;21.30;77.90
8914;DHT22;4492;48.736;9.092;2022-09-09T15:05:23;21.30;78.00
8914;DHT22;4492;48.736;9.092;2022-09-09T15:07:49;21.20;78.40
8914;DHT22;4492;48.736;9.092;2022-09-09T15:10:15;21.20;78.30
8914;DHT22;4492;48.736;9.092;2022-09-09T15:12:43;21.00;79.80
8914;DHT22;4492;48.736;9.092;2022-09-09T15:15:09;20.90;80.00
8914;DHT22;4492;48.736;9.092;2022-09-09T15:17:34;20.80;79.30
8914;DHT22;4492;48.736;9.092;2022-09-09T15:20:02;20.70;80.20
8914;DHT22;4492;48.736;9.092;2022-09-09T15:22:28;20.60;81.30
8914;DHT22;4492;48.736;9.092;2022-09-09T15:24:54;20.70;81.10
8914;DHT22;4492;48.736;9.092;2022-09-09T15:27:20;20.90;81.60
8914;DHT22;4492;48.736;9.092;2022-09-09T15:29:46;21.30;80.10
8914;DHT22;4492;48.736;9.092;2022-09-09T15:32:12;21.60;78.80
8914;DHT22;4492;48.736;9.092;2022-09-09T15:34:37;21.80;77.70
8914;DHT22;4492;48.736;9.092;2022-09-09T15:37:03;21.70;79.20
8914;DHT22;4492;48.736;9.092;2022-09-09T15:39:29;21.50;78.40
8914;DHT22;4492;48.736;9.092;2022-09-09T15:41:54;21.20;79.50
8914;DHT22;4492;48.736;9.092;2022-09-09T15:44:20;20.80;80.80
8914;DHT22;4492;48.736;9.092;2022-09-09T15:46:49;20.50;80.70
8914;DHT22;4492;48.736;9.092;2022-09-09T15:49:20;20.20;78.90
8914;DHT22;4492;48.736;9.092;2022-09-09T15:51:51;20.10;80.00
8914;DHT22;4492;48.736;9.092;2022-09-09T15:54:18;19.90;80.90
8914;DHT22;4492;48.736;9.092;2022-09-09T15:56:47;19.80;80.80
8914;DHT22;4492;48.736;9.092;2022-09-09T15:59:15;19.70;80.40
8914;DHT22;4492;48.736;9.092;2022-09-09T16:01:41;19.60;81.10
8914;DHT22;4492;48.736;9.092;2022-09-09T16:04:07;19.60;81.00
8914;DHT22;4492;48.736;9.092;2022-09-09T16:06:34;19.60;81.20
8914;DHT22;4492;48.736;9.092;2022-09-09T16:09:00;19.50;82.50
8914;DHT22;4492;48.736;9.092;2022-09-09T16:11:31;19.40;82.10
8914;DHT22;4492;48.736;9.092;2022-09-09T16:13:57;19.30;82.30
8914;DHT22;4492;48.736;9.092;2022-09-09T16:16:26;19.20;82.70
8914;DHT22;4492;48.736;9.092;2022-09-09T16:18:55;19.20;82.80
8914;DHT22;4492;48.736;9.092;2022-09-09T16:23:47;19.10;84.40
8914;DHT22;4492;48.736;9.092;2022-09-09T16:26:15;19.00;84.80
8914;DHT22;4492;48.736;9.092;2022-09-09T16:28:41;19.00;85.30
8914;DHT22;4492;48.736;9.092;2022-09-09T16:31:07;18.90;86.00
8914;DHT22;4492;48.736;9.092;2022-09-09T16:33:35;18.90;86.50
8914;DHT22;4492;48.736;9.092;2022-09-09T16:36:09;18.90;87.70
8914;DHT22;4492;48.736;9.092;2022-09-09T16:38:36;18.80;88.60
8914;DHT22;4492;48.736;9.092;2022-09-09T16:41:03;18.70;89.60
8914;DHT22;4492;48.736;9.092;2022-09-09T16:43:31;18.70;90.20
8914;DHT22;4492;48.736;9.092;2022-09-09T16:45:57;18.60;90.60
8914;DHT22;4492;48.736;9.092;2022-09-09T16:48:22;18.70;90.20
8914;DHT22;4492;48.736;9.092;2022-09-09T16:50:48;18.60;89.90
8914;DHT22;4492;48.736;9.092;2022-09-09T16:53:14;18.40;90.20
8914;DHT22;4492;48.736;9.092;2022-09-09T16:55:40;18.30;90.70
8914;DHT22;4492;48.736;9.092;2022-09-09T16:58:07;18.20;90.70
8914;DHT22;4492;48.736;9.092;2022-09-09T17:00:34;18.10;90.60
8914;DHT22;4492;48.736;9.092;2022-09-09T17:03:00;18.00;90.30
8914;DHT22;4492;48.736;9.092;2022-09-09T17:05:25;17.80;90.70
8914;DHT22;4492;48.736;9.092;2022-09-09T17:07:51;17.60;91.20
8914;DHT22;4492;48.736;9.092;2022-09-09T17:10:17;17.40;91.50
8914;DHT22;4492;48.736;9.092;2022-09-09T17:12:43;17.30;92.30
8914;DHT22;4492;48.736;9.092;2022-09-09T17:15:08;17.10;92.80
8914;DHT22;4492;48.736;9.092;2022-09-09T17:17:35;17.00;93.60
8914;DHT22;4492;48.736;9.092;2022-09-09T17:20:01;16.90;93.60
8914;DHT22;4492;48.736;9.092;2022-09-09T17:22:27;16.70;93.90
8914;DHT22;4492;48.736;9.092;2022-09-09T17:24:54;16.60;94.30
8914;DHT22;4492;48.736;9.092;2022-09-09T17:27:20;16.50;94.90
8914;DHT22;4492;48.736;9.092;2022-09-09T17:29:45;16.40;95.50
8914;DHT22;4492;48.736;9.092;2022-09-09T17:32:11;16.30;95.70
8914;DHT22;4492;48.736;9.092;2022-09-09T17:34:37;16.20;96.20
8914;DHT22;4492;48.736;9.092;2022-09-09T17:37:03;16.10;96.40
8914;DHT22;4492;48.736;9.092;2022-09-09T17:39:31;16.10;96.70
8914;DHT22;4492;48.736;9.092;2022-09-09T17:41:57;16.00;97.10
8914;DHT22;4492;48.736;9.092;2022-09-09T17:44:22;15.90;97.60
8914;DHT22;4492;48.736;9.092;2022-09-09T17:46:48;15.90;97.90
8914;DHT22;4492;48.736;9.092;2022-09-09T17:49:16;15.80;98.20
8914;DHT22;4492;48.736;9.092;2022-09-09T17:51:43;15.70;98.30
8914;DHT22;4492;48.736;9.092;2022-09-09T17:54:15;15.70;98.90
8914;DHT22;4492;48.736;9.092;2022-09-09T17:56:41;15.70;99.20
8914;DHT22;4492;48.736;9.092;2022-09-09T17:59:10;15.50;99.50
8914;DHT22;4492;48.736;9.092;2022-09-09T18:01:40;15.50;99.80
8914;DHT22;4492;48.736;9.092;2022-09-09T18:04:07;15.40;99.90
8914;DHT22;4492;48.736;9.092;2022-09-09T18:06:38;15.40;99.90
8914;DHT22;4492;48.736;9.092;2022-09-09T18:09:07;15.30;99.90
8914;DHT22;4492;48.736;9.092;2022-09-09T18:11:37;15.30;99.90
8914;DHT22;4492;48.736;9.092;2022-09-09T18:14:07;15.30;99.90
8914;DHT22;4492;48.736;9.092;2022-09-09T18:16:35;15.20;99.90
8914;DHT22;4492;48.736;9.092;2022-09-09T18:19:03;15.30;99.90
8914;DHT22;4492;48.736;9.092;2022-09-09T18:21:30;15.30;99.90